Transatlantic — WDC2769 — position and weather

sailwx.info

Track history (hours):
 
Tides and Currents Weather Stations Pressure Air Temp Water Temp Dewpoint Dewpoint Depression Visibility Wind Speed Wind Dir Waves Ship Positions

Transatlantic

Owner: TRANSATLANTIC LINES SHIP HOLDINGS II INC, Greenwich, CT. More information available from US FCC via Universal Licensing System and Coast Guard Vessel Documentation Center.

Last reported at 2014-Dec-06 02:13 UTC. Time now 2014-Dec-22 20:33 UTC.
Position N 35°46' E 025°55'.
Warning: this ship's position is 16 days out of date.

Length 101 m.

Type: Cargo ship. MMSI: 366997520.

Date/timePositionNaut miles runAvg speedWind from/ knotsBaromVisibWave heightAir tempDewpointWater temp
2014-Dec-06 02:13N 35°46' E 025°55'812.1
2014-Dec-06 01:33N 35°50' E 025°46'1212.0
2014-Dec-06 00:33N 35°55' E 025°33'1212.0
2014-Dec-05 23:32N 36°01' E 025°20'1211.9
2014-Dec-05 22:33N 36°07' E 025°07'1212.0
2014-Dec-05 21:33N 36°13' E 024°54'1212.0
2014-Dec-05 20:33N 36°19' E 024°41'1211.8
2014-Dec-05 19:33N 36°24' E 024°28'1211.9
2014-Dec-05 18:33N 36°31' E 024°16'1212.5
2014-Dec-05 17:33N 36°42' E 024°10'1212.5
2014-Dec-05 16:33N 36°54' E 024°05'4912.1
2014-Dec-05 12:33N 37°39' E 023°42'10 9.6
2014-Dec-05 11:33N 37°48' E 023°37'7 7.3
2014-Dec-05 10:33N 37°55' E 023°34'0 0.5
2014-Dec-05 09:33N 37°55' E 023°34'0 0.0
2014-Dec-05 08:33N 37°55' E 023°34'0 0.0
2014-Dec-05 07:33N 37°55' E 023°34'0 0.0
2014-Dec-05 06:33N 37°55' E 023°34'0 0.0
2014-Dec-05 05:33N 37°55' E 023°34'0 0.1
2014-Dec-05 04:33N 37°55' E 023°34'0 0.0
2014-Dec-05 03:33N 37°55' E 023°34'0 0.0
2014-Dec-05 02:33N 37°55' E 023°34'0 0.0
2014-Dec-05 01:33N 37°55' E 023°34'0 0.0
2014-Dec-05 00:33N 37°55' E 023°34'0 0.0
2014-Dec-04 23:33N 37°55' E 023°34'0 0.0
2014-Dec-04 22:33N 37°55' E 023°34'0 0.0
2014-Dec-04 21:33N 37°55' E 023°34'0 0.0
2014-Dec-04 20:33N 37°55' E 023°34'0 0.1
2014-Dec-04 19:33N 37°55' E 023°34'0 0.1
2014-Dec-04 18:33N 37°55' E 023°34'0 0.0
2014-Dec-04 17:33N 37°55' E 023°34'0 0.0
2014-Dec-04 16:33N 37°55' E 023°34'0 0.0
2014-Dec-04 15:33N 37°55' E 023°34'0 0.0
2014-Dec-04 14:33N 37°55' E 023°34'0 0.0
2014-Dec-04 13:33N 37°55' E 023°34'0 0.0
2014-Dec-04 12:33N 37°55' E 023°34'0 0.0
2014-Dec-04 11:33N 37°55' E 023°34'0 0.0
2014-Dec-04 10:33N 37°55' E 023°34'0 0.1
2014-Dec-04 09:33N 37°55' E 023°34'3 2.8
2014-Dec-04 08:33N 37°53' E 023°36'6 6.3
2014-Dec-04 07:33N 37°48' E 023°41'9 8.7
2014-Dec-04 06:32N 37°40' E 023°45'8 8.3
2014-Dec-04 05:32N 37°32' E 023°43'10 7.9
2014-Dec-04 04:19N 37°22' E 023°41'9 8.9
2014-Dec-04 03:17N 37°13' E 023°38'19 9.3
2014-Dec-04 01:12N 36°54' E 023°33'6 9.4
2014-Dec-04 00:32N 36°48' E 023°31'9 8.8
2014-Dec-03 23:28N 36°39' E 023°29'34 8.2
2014-Dec-03 19:16N 36°07' E 023°12'  
2014-Dec-01 02:16N 37°04' E 011°52'10 9.3
2014-Dec-01 01:13N 37°08' E 011°41'6 9.3
2014-Dec-01 00:33N 37°11' E 011°34'9 9.6
2014-Nov-30 23:34N 37°15' E 011°24'10 9.2
2014-Nov-30 22:29N 37°20' E 011°13'43 9.7
2014-Nov-30 18:03N 37°33' E 010°21'5 9.8
2014-Nov-30 17:33N 37°34' E 010°15'  
2014-Nov-27 12:07N 35°59' W 005°11'713.0
2014-Nov-27 11:34N 35°59' W 005°20'  
Track history (hours):
 
Tides and Currents Weather Stations Pressure Air Temp Water Temp Dewpoint Dewpoint Depression Visibility Wind Speed Wind Dir Waves Ship Positions

Transatlantic

Owner: TRANSATLANTIC LINES SHIP HOLDINGS II INC, Greenwich, CT. More information available from US FCC via Universal Licensing System and Coast Guard Vessel Documentation Center.

Last reported at 2014-Dec-06 02:13 UTC. Time now 2014-Dec-22 20:33 UTC.
Position N 35°46' E 025°55'.
Warning: this ship's position is 16 days out of date.

Length 101 m.

Type: Cargo ship. MMSI: 366997520.

Date/timePositionNaut miles runAvg speedWind from/ knotsBaromVisibWave heightAir tempDewpointWater temp
2014-Dec-06 02:13N 35°46' E 025°55'812.1
2014-Dec-06 01:33N 35°50' E 025°46'1212.0
2014-Dec-06 00:33N 35°55' E 025°33'1212.0
2014-Dec-05 23:32N 36°01' E 025°20'1211.9
2014-Dec-05 22:33N 36°07' E 025°07'1212.0
2014-Dec-05 21:33N 36°13' E 024°54'1212.0
2014-Dec-05 20:33N 36°19' E 024°41'1211.8
2014-Dec-05 19:33N 36°24' E 024°28'1211.9
2014-Dec-05 18:33N 36°31' E 024°16'1212.5
2014-Dec-05 17:33N 36°42' E 024°10'1212.5
2014-Dec-05 16:33N 36°54' E 024°05'4912.1
2014-Dec-05 12:33N 37°39' E 023°42'10 9.6
2014-Dec-05 11:33N 37°48' E 023°37'7 7.3
2014-Dec-05 10:33N 37°55' E 023°34'0 0.5
2014-Dec-05 09:33N 37°55' E 023°34'0 0.0
2014-Dec-05 08:33N 37°55' E 023°34'0 0.0
2014-Dec-05 07:33N 37°55' E 023°34'0 0.0
2014-Dec-05 06:33N 37°55' E 023°34'0 0.0
2014-Dec-05 05:33N 37°55' E 023°34'0 0.1
2014-Dec-05 04:33N 37°55' E 023°34'0 0.0
2014-Dec-05 03:33N 37°55' E 023°34'0 0.0
2014-Dec-05 02:33N 37°55' E 023°34'0 0.0
2014-Dec-05 01:33N 37°55' E 023°34'0 0.0
2014-Dec-05 00:33N 37°55' E 023°34'0 0.0
2014-Dec-04 23:33N 37°55' E 023°34'0 0.0
2014-Dec-04 22:33N 37°55' E 023°34'0 0.0
2014-Dec-04 21:33N 37°55' E 023°34'0 0.0
2014-Dec-04 20:33N 37°55' E 023°34'0 0.1
2014-Dec-04 19:33N 37°55' E 023°34'0 0.1
2014-Dec-04 18:33N 37°55' E 023°34'0 0.0
2014-Dec-04 17:33N 37°55' E 023°34'0 0.0
2014-Dec-04 16:33N 37°55' E 023°34'0 0.0
2014-Dec-04 15:33N 37°55' E 023°34'0 0.0
2014-Dec-04 14:33N 37°55' E 023°34'0 0.0
2014-Dec-04 13:33N 37°55' E 023°34'0 0.0
2014-Dec-04 12:33N 37°55' E 023°34'0 0.0
2014-Dec-04 11:33N 37°55' E 023°34'0 0.0
2014-Dec-04 10:33N 37°55' E 023°34'0 0.1
2014-Dec-04 09:33N 37°55' E 023°34'3 2.8
2014-Dec-04 08:33N 37°53' E 023°36'6 6.3
2014-Dec-04 07:33N 37°48' E 023°41'9 8.7
2014-Dec-04 06:32N 37°40' E 023°45'8 8.3
2014-Dec-04 05:32N 37°32' E 023°43'10 7.9
2014-Dec-04 04:19N 37°22' E 023°41'9 8.9
2014-Dec-04 03:17N 37°13' E 023°38'19 9.3
2014-Dec-04 01:12N 36°54' E 023°33'6 9.4
2014-Dec-04 00:32N 36°48' E 023°31'9 8.8
2014-Dec-03 23:28N 36°39' E 023°29'34 8.2
2014-Dec-03 19:16N 36°07' E 023°12'  
2014-Dec-01 02:16N 37°04' E 011°52'10 9.3
2014-Dec-01 01:13N 37°08' E 011°41'6 9.3
2014-Dec-01 00:33N 37°11' E 011°34'9 9.6
2014-Nov-30 23:34N 37°15' E 011°24'10 9.2
2014-Nov-30 22:29N 37°20' E 011°13'43 9.7
2014-Nov-30 18:03N 37°33' E 010°21'5 9.8
2014-Nov-30 17:33N 37°34' E 010°15'  
2014-Nov-27 12:07N 35°59' W 005°11'713.0
2014-Nov-27 11:34N 35°59' W 005°20'  

Dump ship's entire track history